Time;durP1;ratioP1;P1;durP2;ratioP2;P2;SDS_P1;SDS_P2;PMS_P1;PMS_P2;Temp;Humidity;BMP_temperature;BMP_pressure;BME280_temperature;BME280_humidity;BME280_pressure;Samples;Min_cycle;Max_cycle;Signal;HPM_P1;HPM_P2
2021/07/05 00:00:36;;;;;;;5.85;4.72;;;;;;;;;;5036434;28;20028;-47
2021/07/05 00:03:02;;;;;;;8.82;6.00;;;;;;;;;;5038075;28;20340;-47
2021/07/05 00:05:27;;;;;;;7.50;6.05;;;;;;;;;;5038365;28;20025;-45
2021/07/05 00:07:52;;;;;;;7.03;5.50;;;;;;;;;;5038178;28;20036;-45
2021/07/05 00:10:22;;;;;;;7.88;7.18;;;;;;;;;;5035433;28;20017;-46
2021/07/05 00:12:48;;;;;;;8.38;7.50;;;;;;;;;;5040763;28;20021;-47
2021/07/05 00:15:19;;;;;;;9.38;6.82;;;;;;;;;;5037039;28;20028;-45
2021/07/05 00:17:44;;;;;;;15.65;7.45;;;;;;;;;;5034397;28;20037;-48
2021/07/05 00:20:09;;;;;;;16.38;8.68;;;;;;;;;;5039406;28;20048;-45
2021/07/05 00:22:35;;;;;;;10.90;6.78;;;;;;;;;;5035264;28;20805;-45
2021/07/05 00:25:00;;;;;;;8.02;7.22;;;;;;;;;;5036296;28;20504;-46
2021/07/05 00:27:25;;;;;;;9.40;7.68;;;;;;;;;;5029689;28;20049;-48
2021/07/05 00:29:51;;;;;;;7.15;6.45;;;;;;;;;;5035062;28;20373;-45
2021/07/05 00:32:16;;;;;;;9.20;6.43;;;;;;;;;;5034370;28;20033;-46
2021/07/05 00:34:41;;;;;;;8.32;5.30;;;;;;;;;;5035818;28;20021;-45
2021/07/05 00:37:07;;;;;;;8.15;6.15;;;;;;;;;;5033058;28;20041;-47
2021/07/05 00:39:32;;;;;;;7.50;6.15;;;;;;;;;;5038537;28;20013;-44
2021/07/05 00:41:57;;;;;;;6.70;5.72;;;;;;;;;;5034596;28;20026;-44
2021/07/05 00:44:22;;;;;;;7.72;5.00;;;;;;;;;;5033836;28;20488;-48
2021/07/05 00:46:48;;;;;;;11.60;5.45;;;;;;;;;;5038364;28;20129;-44
2021/07/05 00:49:13;;;;;;;17.10;5.32;;;;;;;;;;5038304;28;20021;-50
2021/07/05 00:51:38;;;;;;;9.38;5.75;;;;;;;;;;5039890;28;20713;-49
2021/07/05 00:54:04;;;;;;;7.78;5.10;;;;;;;;;;5034527;28;20496;-46
2021/07/05 00:56:29;;;;;;;5.50;4.38;;;;;;;;;;5032795;28;20132;-49
2021/07/05 00:58:55;;;;;;;6.97;5.82;;;;;;;;;;5037131;28;20026;-46
2021/07/05 01:01:21;;;;;;;6.78;6.10;;;;;;;;;;5035485;28;20492;-47
2021/07/05 01:03:46;;;;;;;6.03;5.43;;;;;;;;;;5035779;28;20040;-49
2021/07/05 01:06:11;;;;;;;8.63;6.20;;;;;;;;;;5035133;28;20126;-47
2021/07/05 01:08:37;;;;;;;7.93;5.30;;;;;;;;;;5036963;28;20032;-48
2021/07/05 01:11:02;;;;;;;7.35;6.13;;;;;;;;;;5032922;28;20505;-50
2021/07/05 01:13:27;;;;;;;7.68;5.88;;;;;;;;;;5037990;28;20017;-44
2021/07/05 01:15:53;;;;;;;8.98;6.35;;;;;;;;;;5041097;28;20017;-50
2021/07/05 01:18:19;;;;;;;10.43;6.68;;;;;;;;;;5036628;28;20024;-48
2021/07/05 01:20:44;;;;;;;8.38;6.90;;;;;;;;;;5034955;28;20017;-46
2021/07/05 01:23:10;;;;;;;5.85;5.30;;;;;;;;;;5039684;28;20029;-46
2021/07/05 01:25:36;;;;;;;8.23;5.65;;;;;;;;;;5035920;28;20489;-47
2021/07/05 01:28:03;;;;;;;5.22;4.72;;;;;;;;;;5033684;28;20021;-48
2021/07/05 01:30:28;;;;;;;6.32;5.75;;;;;;;;;;5028185;28;20376;-49
2021/07/05 01:32:56;;;;;;;7.07;5.65;;;;;;;;;;5031653;28;20017;-46
2021/07/05 01:35:21;;;;;;;8.10;5.40;;;;;;;;;;5037391;28;20105;-44
2021/07/05 01:37:47;;;;;;;13.32;4.75;;;;;;;;;;5033685;28;20103;-47
2021/07/05 01:40:17;;;;;;;6.53;5.93;;;;;;;;;;5035593;28;20167;-47
2021/07/05 01:42:43;;;;;;;10.17;6.50;;;;;;;;;;5037955;28;20071;-47
2021/07/05 01:45:09;;;;;;;5.10;4.60;;;;;;;;;;5036548;28;20787;-48
2021/07/05 01:47:35;;;;;;;4.55;3.58;;;;;;;;;;5035793;28;20132;-44
2021/07/05 01:50:00;;;;;;;6.10;4.28;;;;;;;;;;5036473;28;20152;-46
2021/07/05 01:52:25;;;;;;;5.38;3.88;;;;;;;;;;5036716;28;20029;-47
2021/07/05 01:54:50;;;;;;;8.73;5.57;;;;;;;;;;5034053;28;20017;-50
2021/07/05 01:57:25;;;;;;;7.25;4.88;;;;;;;;;;5034957;28;20499;-45
2021/07/05 01:59:54;;;;;;;13.10;6.05;;;;;;;;;;5034146;28;20022;-44
2021/07/05 02:02:19;;;;;;;11.32;5.25;;;;;;;;;;5035993;28;20028;-45
2021/07/05 02:04:45;;;;;;;8.55;5.45;;;;;;;;;;5035468;28;20637;-45
2021/07/05 02:07:10;;;;;;;11.88;6.15;;;;;;;;;;5031698;28;20492;-45
2021/07/05 02:09:36;;;;;;;6.70;5.13;;;;;;;;;;5033015;28;20020;-46
2021/07/05 02:12:02;;;;;;;6.85;5.50;;;;;;;;;;5037200;28;20021;-47
2021/07/05 02:14:27;;;;;;;9.30;6.07;;;;;;;;;;5034393;28;20480;-45
2021/07/05 02:16:52;;;;;;;6.32;5.15;;;;;;;;;;5033321;28;20190;-45
2021/07/05 02:19:18;;;;;;;6.45;5.78;;;;;;;;;;5038298;28;20025;-47
2021/07/05 02:21:43;;;;;;;11.15;5.28;;;;;;;;;;5033733;28;20052;-47
2021/07/05 02:24:09;;;;;;;13.30;6.03;;;;;;;;;;5034492;28;20028;-45
2021/07/05 02:26:34;;;;;;;6.80;6.10;;;;;;;;;;5034257;28;20095;-49
2021/07/05 02:28:59;;;;;;;5.93;4.75;;;;;;;;;;5033802;28;20292;-47
2021/07/05 02:31:25;;;;;;;9.70;7.18;;;;;;;;;;5031587;28;20037;-45
2021/07/05 02:33:50;;;;;;;6.45;5.72;;;;;;;;;;5031793;28;20021;-45
2021/07/05 02:36:15;;;;;;;9.32;7.25;;;;;;;;;;5036603;28;20373;-44
2021/07/05 02:38:41;;;;;;;7.55;5.20;;;;;;;;;;5027240;28;20087;-50
2021/07/05 02:41:06;;;;;;;8.93;7.53;;;;;;;;;;5033258;28;20033;-44
2021/07/05 02:43:32;;;;;;;6.95;6.15;;;;;;;;;;5030279;28;20021;-47
2021/07/05 02:45:57;;;;;;;10.35;7.32;;;;;;;;;;5033805;28;20021;-45
2021/07/05 02:48:25;;;;;;;7.40;6.70;;;;;;;;;;5034076;28;20123;-46
2021/07/05 02:50:54;;;;;;;6.00;5.40;;;;;;;;;;5037744;28;20028;-47
2021/07/05 02:53:19;;;;;;;8.55;7.18;;;;;;;;;;5034742;28;20097;-45
2021/07/05 02:55:45;;;;;;;9.30;6.72;;;;;;;;;;5033421;28;20021;-49
2021/07/05 02:58:11;;;;;;;8.65;6.60;;;;;;;;;;5034801;28;20022;-49
2021/07/05 03:00:37;;;;;;;9.18;6.55;;;;;;;;;;5036135;28;20025;-48
2021/07/05 03:03:03;;;;;;;9.93;6.22;;;;;;;;;;5033009;28;20051;-48
2021/07/05 03:05:29;;;;;;;7.47;6.43;;;;;;;;;;5035933;28;20655;-45
2021/07/05 03:07:55;;;;;;;6.70;6.07;;;;;;;;;;5035784;28;20053;-43
2021/07/05 03:10:22;;;;;;;6.95;5.95;;;;;;;;;;5030325;28;20027;-47
2021/07/05 03:12:47;;;;;;;7.88;5.20;;;;;;;;;;5029635;28;20022;-46
2021/07/05 03:15:13;;;;;;;11.43;6.88;;;;;;;;;;5030663;28;20140;-45
2021/07/05 03:17:39;;;;;;;7.88;7.18;;;;;;;;;;5039260;28;20114;-47
2021/07/05 03:20:11;;;;;;;7.82;6.07;;;;;;;;;;5035700;28;20025;-45
2021/07/05 03:22:37;;;;;;;7.97;6.60;;;;;;;;;;5034654;28;20113;-47
2021/07/05 03:25:04;;;;;;;7.38;6.70;;;;;;;;;;5031533;28;20117;-45
2021/07/05 03:27:29;;;;;;;8.85;7.00;;;;;;;;;;5031094;28;20674;-46
2021/07/05 03:29:55;;;;;;;6.57;5.88;;;;;;;;;;5032052;28;20029;-48
2021/07/05 03:32:20;;;;;;;6.82;6.22;;;;;;;;;;5031102;28;20017;-47
2021/07/05 03:34:46;;;;;;;7.85;7.05;;;;;;;;;;5033993;28;20074;-46
2021/07/05 03:37:11;;;;;;;7.85;6.80;;;;;;;;;;5031088;28;20028;-46
2021/07/05 03:39:36;;;;;;;7.85;7.15;;;;;;;;;;5032604;28;20366;-46
2021/07/05 03:42:02;;;;;;;20.38;6.35;;;;;;;;;;5034103;28;20070;-44
2021/07/05 03:44:28;;;;;;;14.95;7.00;;;;;;;;;;5032226;28;20100;-45
2021/07/05 03:46:53;;;;;;;8.27;6.57;;;;;;;;;;5034218;28;20477;-48
2021/07/05 03:49:18;;;;;;;7.07;6.18;;;;;;;;;;5038647;28;20389;-45
2021/07/05 03:51:44;;;;;;;9.55;7.18;;;;;;;;;;5037625;28;20040;-46
2021/07/05 03:54:10;;;;;;;8.50;6.38;;;;;;;;;;5035771;28;20504;-52
2021/07/05 03:56:35;;;;;;;8.98;6.18;;;;;;;;;;5031667;28;20021;-46
2021/07/05 03:59:00;;;;;;;7.28;5.63;;;;;;;;;;5031486;28;20397;-49
2021/07/05 04:01:26;;;;;;;8.20;7.13;;;;;;;;;;5033656;28;20028;-46
2021/07/05 04:03:51;;;;;;;7.28;6.40;;;;;;;;;;5030116;28;20017;-45
2021/07/05 04:06:16;;;;;;;13.20;8.05;;;;;;;;;;5030703;28;20057;-44
2021/07/05 04:08:42;;;;;;;11.48;7.13;;;;;;;;;;5031142;28;20056;-44
2021/07/05 04:11:07;;;;;;;7.97;7.03;;;;;;;;;;5029885;28;20491;-47
2021/07/05 04:13:33;;;;;;;7.13;6.43;;;;;;;;;;5028788;28;20052;-48
2021/07/05 04:15:58;;;;;;;6.82;6.05;;;;;;;;;;5022800;28;20013;-48
2021/07/05 04:18:23;;;;;;;8.25;7.45;;;;;;;;;;5029747;28;20025;-46
2021/07/05 04:20:48;;;;;;;7.65;6.53;;;;;;;;;;5033366;28;20491;-46
2021/07/05 04:23:14;;;;;;;7.97;6.45;;;;;;;;;;5037242;28;20026;-50
2021/07/05 04:25:40;;;;;;;6.40;5.10;;;;;;;;;;5036681;28;20412;-48
2021/07/05 04:28:06;;;;;;;8.38;6.43;;;;;;;;;;5037202;28;20014;-47
2021/07/05 04:30:32;;;;;;;11.77;7.95;;;;;;;;;;5036790;28;20028;-46
2021/07/05 04:32:57;;;;;;;9.40;8.50;;;;;;;;;;5036229;28;20487;-44
2021/07/05 04:35:23;;;;;;;8.13;6.53;;;;;;;;;;5037299;28;20067;-48
2021/07/05 04:37:49;;;;;;;9.43;6.40;;;;;;;;;;5034580;28;20396;-47
2021/07/05 04:40:16;;;;;;;9.85;5.72;;;;;;;;;;5034237;28;20129;-47
2021/07/05 04:42:42;;;;;;;12.50;7.50;;;;;;;;;;5035228;28;20124;-49
2021/07/05 04:45:08;;;;;;;10.02;9.20;;;;;;;;;;5036693;28;20452;-44
2021/07/05 04:47:34;;;;;;;22.67;9.18;;;;;;;;;;5033695;28;20025;-46
2021/07/05 04:49:59;;;;;;;12.02;7.32;;;;;;;;;;5039168;28;20017;-43
2021/07/05 04:52:24;;;;;;;7.93;7.18;;;;;;;;;;5036260;28;20435;-45
2021/07/05 04:54:50;;;;;;;7.55;6.85;;;;;;;;;;5039462;28;20097;-47
2021/07/05 04:57:15;;;;;;;10.60;7.90;;;;;;;;;;5037387;28;20562;-46
2021/07/05 04:59:41;;;;;;;8.80;6.82;;;;;;;;;;5033601;28;20017;-45
2021/07/05 05:02:06;;;;;;;17.10;7.60;;;;;;;;;;5033835;28;20482;-44
2021/07/05 05:04:31;;;;;;;8.57;7.80;;;;;;;;;;5049216;28;20021;-43
2021/07/05 05:06:57;;;;;;;15.23;7.45;;;;;;;;;;5037741;28;20761;-48
2021/07/05 05:09:25;;;;;;;17.67;10.02;;;;;;;;;;5035977;28;20029;-45
2021/07/05 05:11:51;;;;;;;8.73;6.18;;;;;;;;;;5034652;28;20025;-45
2021/07/05 05:14:17;;;;;;;7.50;6.72;;;;;;;;;;5037940;28;20094;-41
2021/07/05 05:16:42;;;;;;;5.90;5.18;;;;;;;;;;5036296;28;20077;-41
2021/07/05 05:19:08;;;;;;;14.32;8.75;;;;;;;;;;5039269;28;20048;-45
2021/07/05 05:21:33;;;;;;;14.13;10.95;;;;;;;;;;5036629;28;20276;-45
2021/07/05 05:23:59;;;;;;;10.40;8.65;;;;;;;;;;5035940;28;20033;-44
2021/07/05 05:26:24;;;;;;;8.85;8.00;;;;;;;;;;5035554;28;20393;-43
2021/07/05 05:28:50;;;;;;;11.50;8.23;;;;;;;;;;5036584;28;20021;-50
2021/07/05 05:31:15;;;;;;;8.20;7.47;;;;;;;;;;5037670;28;20017;-46
2021/07/05 05:33:40;;;;;;;25.10;21.30;;;;;;;;;;5034140;28;20028;-45
2021/07/05 05:36:06;;;;;;;34.80;30.40;;;;;;;;;;5036574;28;20013;-47
2021/07/05 05:38:31;;;;;;;29.20;26.17;;;;;;;;;;5036498;28;20017;-44
2021/07/05 05:40:56;;;;;;;20.40;18.52;;;;;;;;;;5035754;28;20396;-42
2021/07/05 05:43:22;;;;;;;25.98;15.18;;;;;;;;;;5035818;28;20052;-57
2021/07/05 05:45:47;;;;;;;14.40;13.10;;;;;;;;;;5023197;28;20025;-57
2021/07/05 05:48:12;;;;;;;14.70;13.13;;;;;;;;;;5028043;28;20034;-58
2021/07/05 05:50:38;;;;;;;12.07;10.88;;;;;;;;;;5026626;28;20389;-58
2021/07/05 05:53:03;;;;;;;9.85;7.15;;;;;;;;;;5037544;28;20017;-57
2021/07/05 05:55:29;;;;;;;11.13;7.55;;;;;;;;;;5033864;28;20798;-57
2021/07/05 05:57:54;;;;;;;12.23;9.60;;;;;;;;;;5031876;28;20037;-57
2021/07/05 06:00:23;;;;;;;6.45;5.82;;;;;;;;;;5030490;28;20028;-57
2021/07/05 06:02:49;;;;;;;9.57;7.20;;;;;;;;;;5031454;28;20028;-57
2021/07/05 06:05:14;;;;;;;6.50;5.75;;;;;;;;;;5031925;28;20404;-57
2021/07/05 06:07:42;;;;;;;7.68;5.85;;;;;;;;;;5034287;28;20045;-57
2021/07/05 06:10:08;;;;;;;8.57;7.70;;;;;;;;;;5030553;28;20024;-57
2021/07/05 06:12:33;;;;;;;6.55;5.38;;;;;;;;;;5029408;28;20054;-58
2021/07/05 06:14:59;;;;;;;7.68;6.70;;;;;;;;;;5028400;28;20072;-56
2021/07/05 06:17:24;;;;;;;11.13;7.70;;;;;;;;;;5032073;28;20108;-52
2021/07/05 06:19:49;;;;;;;9.75;5.20;;;;;;;;;;5028609;28;20018;-54
2021/07/05 06:22:26;;;;;;;7.38;5.38;;;;;;;;;;5030908;28;20041;-48
2021/07/05 06:24:51;;;;;;;17.35;6.78;;;;;;;;;;5031986;28;20124;-57
2021/07/05 06:27:16;;;;;;;19.90;5.60;;;;;;;;;;5032116;28;20108;-57
2021/07/05 06:29:42;;;;;;;8.75;6.13;;;;;;;;;;5033041;28;20035;-56
2021/07/05 06:32:07;;;;;;;16.83;6.43;;;;;;;;;;5032652;28;20025;-56
2021/07/05 06:34:32;;;;;;;14.98;4.63;;;;;;;;;;5031372;28;20044;-57
2021/07/05 06:36:58;;;;;;;16.73;3.90;;;;;;;;;;5029925;28;20446;-57
2021/07/05 06:39:23;;;;;;;36.78;23.95;;;;;;;;;;5027595;28;20026;-57
2021/07/05 06:41:49;;;;;;;24.55;17.08;;;;;;;;;;5030587;28;20079;-56
2021/07/05 06:44:14;;;;;;;14.15;12.85;;;;;;;;;;5031536;28;20755;-57
2021/07/05 06:46:39;;;;;;;13.40;11.63;;;;;;;;;;5027307;28;20017;-56
2021/07/05 06:49:05;;;;;;;11.20;10.15;;;;;;;;;;5032277;28;20063;-57
2021/07/05 06:51:30;;;;;;;8.98;7.57;;;;;;;;;;5032303;28;20025;-56
2021/07/05 06:53:55;;;;;;;21.98;10.90;;;;;;;;;;5038145;28;20029;-57
2021/07/05 06:56:20;;;;;;;22.60;9.77;;;;;;;;;;5035657;28;20018;-57
2021/07/05 06:58:46;;;;;;;12.65;11.48;;;;;;;;;;5032014;28;20032;-57
2021/07/05 07:01:11;;;;;;;11.60;10.50;;;;;;;;;;5027033;28;20112;-58
2021/07/05 07:03:36;;;;;;;10.25;9.23;;;;;;;;;;5034434;28;20036;-57
2021/07/05 07:06:02;;;;;;;10.40;8.50;;;;;;;;;;5028060;28;20504;-49
2021/07/05 07:08:27;;;;;;;9.88;4.35;;;;;;;;;;5033994;28;20038;-52
2021/07/05 07:10:52;;;;;;;11.95;9.82;;;;;;;;;;5032228;28;20481;-53
2021/07/05 07:13:18;;;;;;;10.85;9.02;;;;;;;;;;5033660;28;20031;-55
2021/07/05 07:15:55;;;;;;;6.30;4.65;;;;;;;;;;5033916;28;20014;-56
2021/07/05 07:20:46;;;;;;;10.60;9.13;;;;;;;;;;5030898;28;20048;-58
2021/07/05 07:23:11;;;;;;;9.55;8.20;;;;;;;;;;5029426;28;20025;-58
2021/07/05 07:25:37;;;;;;;10.75;9.73;;;;;;;;;;5026996;28;20025;-57
2021/07/05 07:28:02;;;;;;;12.25;9.10;;;;;;;;;;5026025;28;20022;-57
2021/07/05 07:30:27;;;;;;;9.95;8.85;;;;;;;;;;5034004;28;20542;-57
2021/07/05 07:32:53;;;;;;;13.90;9.48;;;;;;;;;;5028213;28;20010;-57
2021/07/05 07:35:19;;;;;;;10.07;5.32;;;;;;;;;;5034058;28;20021;-57
2021/07/05 07:37:46;;;;;;;11.65;9.60;;;;;;;;;;5029353;28;20052;-57
2021/07/05 07:40:21;;;;;;;8.32;7.63;;;;;;;;;;5032894;28;20033;-57
2021/07/05 07:42:47;;;;;;;9.93;7.25;;;;;;;;;;5028043;28;20625;-56
2021/07/05 07:45:13;;;;;;;8.35;7.55;;;;;;;;;;5028635;28;20026;-57
2021/07/05 07:47:39;;;;;;;17.23;10.05;;;;;;;;;;5025553;28;20022;-57
2021/07/05 07:50:05;;;;;;;8.52;7.68;;;;;;;;;;5028879;28;20431;-57
2021/07/05 07:52:30;;;;;;;6.93;6.22;;;;;;;;;;5032397;28;20096;-57
2021/07/05 07:54:55;;;;;;;13.43;9.85;;;;;;;;;;5031556;28;20136;-57
2021/07/05 07:57:21;;;;;;;7.40;6.70;;;;;;;;;;5032186;28;20064;-57
2021/07/05 07:59:46;;;;;;;9.98;7.07;;;;;;;;;;5035390;28;20018;-57
2021/07/05 08:02:12;;;;;;;11.90;8.23;;;;;;;;;;5034550;28;20040;-57
2021/07/05 08:04:38;;;;;;;8.18;6.78;;;;;;;;;;5037459;28;20121;-57
2021/07/05 08:07:04;;;;;;;8.10;7.10;;;;;;;;;;5036563;28;20496;-55
2021/07/05 08:09:29;;;;;;;13.63;7.13;;;;;;;;;;5034635;28;20030;-57
2021/07/05 08:11:55;;;;;;;8.23;7.07;;;;;;;;;;5036250;28;20191;-57
2021/07/05 08:14:20;;;;;;;8.82;7.10;;;;;;;;;;5040563;28;20119;-57
2021/07/05 08:16:45;;;;;;;10.73;6.95;;;;;;;;;;5036880;28;20547;-57
2021/07/05 08:19:11;;;;;;;5.93;4.47;;;;;;;;;;5026791;28;20014;-57
2021/07/05 08:21:37;;;;;;;7.88;5.57;;;;;;;;;;5030725;28;20479;-57
2021/07/05 08:24:03;;;;;;;17.95;8.50;;;;;;;;;;5035858;28;20057;-57
2021/07/05 08:26:29;;;;;;;7.47;3.72;;;;;;;;;;5034570;28;20121;-57
2021/07/05 08:28:54;;;;;;;8.93;6.28;;;;;;;;;;5035698;28;20370;-57
2021/07/05 08:31:19;;;;;;;13.23;9.38;;;;;;;;;;5036522;28;21016;-57
2021/07/05 08:33:47;;;;;;;6.53;4.80;;;;;;;;;;5036067;28;20029;-56
2021/07/05 08:36:12;;;;;;;7.85;6.20;;;;;;;;;;5035119;28;20062;-57
2021/07/05 08:38:37;;;;;;;9.15;5.20;;;;;;;;;;5036099;28;20036;-56
2021/07/05 08:41:03;;;;;;;6.15;5.40;;;;;;;;;;5034343;28;20021;-57
2021/07/05 08:43:29;;;;;;;6.22;5.63;;;;;;;;;;5037057;28;20087;-57
2021/07/05 08:45:57;;;;;;;9.95;4.20;;;;;;;;;;5033788;28;20516;-57
2021/07/05 08:48:23;;;;;;;13.05;7.28;;;;;;;;;;5037094;28;20029;-57
2021/07/05 08:50:50;;;;;;;6.68;5.20;;;;;;;;;;5036572;28;20477;-57
2021/07/05 08:53:15;;;;;;;4.30;3.90;;;;;;;;;;5039093;28;20029;-57
2021/07/05 08:55:41;;;;;;;16.00;5.15;;;;;;;;;;5033297;28;20527;-56
2021/07/05 08:58:07;;;;;;;4.90;4.13;;;;;;;;;;5035018;28;20021;-57
2021/07/05 09:00:32;;;;;;;5.25;4.68;;;;;;;;;;5033577;28;20491;-56
2021/07/05 09:02:59;;;;;;;11.13;6.53;;;;;;;;;;5034506;28;20116;-57
2021/07/05 09:05:24;;;;;;;5.20;4.75;;;;;;;;;;5037515;28;20021;-57
2021/07/05 09:07:57;;;;;;;5.97;4.68;;;;;;;;;;5036946;28;20057;-57
2021/07/05 09:10:23;;;;;;;8.68;4.93;;;;;;;;;;5035335;28;20087;-57
2021/07/05 09:13:14;;;;;;;13.63;4.75;;;;;;;;;;5038583;28;20104;-57
2021/07/05 09:15:43;;;;;;;7.53;3.70;;;;;;;;;;5034245;28;20030;-57
2021/07/05 09:18:27;;;;;;;16.13;6.97;;;;;;;;;;5033911;28;20064;-57
2021/07/05 09:20:53;;;;;;;6.03;4.35;;;;;;;;;;5033877;28;20021;-56
2021/07/05 09:23:19;;;;;;;7.50;5.00;;;;;;;;;;5038142;28;20029;-56
2021/07/05 09:25:46;;;;;;;6.20;4.60;;;;;;;;;;5036618;28;20018;-57
2021/07/05 09:28:12;;;;;;;11.10;5.25;;;;;;;;;;5035952;28;20025;-57
2021/07/05 09:30:40;;;;;;;7.85;4.03;;;;;;;;;;5029596;28;20496;-57
2021/07/05 09:33:22;;;;;;;7.55;4.03;;;;;;;;;;5034679;28;20044;-57
2021/07/05 09:35:49;;;;;;;11.63;3.92;;;;;;;;;;5036419;28;20049;-57
2021/07/05 09:38:26;;;;;;;9.13;5.03;;;;;;;;;;5040807;28;20391;-57
2021/07/05 09:40:51;;;;;;;3.03;2.30;;;;;;;;;;5032927;28;20484;-57
2021/07/05 09:43:21;;;;;;;9.30;7.45;;;;;;;;;;5031600;28;20091;-57
2021/07/05 09:45:47;;;;;;;8.27;5.63;;;;;;;;;;5030971;28;20559;-56
2021/07/05 09:48:17;;;;;;;5.18;4.32;;;;;;;;;;5032262;28;20112;-57
2021/07/05 09:50:43;;;;;;;3.40;2.17;;;;;;;;;;5035074;28;20071;-57
2021/07/05 09:53:25;;;;;;;3.55;2.90;;;;;;;;;;5032419;28;20017;-57
2021/07/05 09:55:50;;;;;;;12.77;11.68;;;;;;;;;;5034081;28;20021;-56
2021/07/05 09:58:15;;;;;;;10.57;6.45;;;;;;;;;;5034639;28;20480;-57
2021/07/05 10:00:41;;;;;;;7.25;4.13;;;;;;;;;;5035136;28;20030;-56
2021/07/05 10:03:08;;;;;;;9.82;4.75;;;;;;;;;;5028726;28;20104;-56
2021/07/05 10:05:43;;;;;;;4.10;3.22;;;;;;;;;;5030631;28;20017;-55
2021/07/05 10:08:09;;;;;;;6.55;5.47;;;;;;;;;;5035986;28;20075;-62
2021/07/05 10:10:37;;;;;;;2.63;2.17;;;;;;;;;;5035161;28;20096;-62
2021/07/05 10:13:07;;;;;;;8.65;2.80;;;;;;;;;;5032820;28;20022;-62
2021/07/05 10:15:33;;;;;;;6.38;3.85;;;;;;;;;;5032791;28;20024;-57
2021/07/05 10:17:58;;;;;;;12.25;5.72;;;;;;;;;;5034579;28;20385;-57
2021/07/05 10:20:34;;;;;;;5.95;3.05;;;;;;;;;;5033484;28;20052;-56
2021/07/05 10:23:10;;;;;;;8.85;5.30;;;;;;;;;;5032755;28;20033;-54
2021/07/05 10:25:37;;;;;;;5.65;3.90;;;;;;;;;;5036173;28;20029;-52
2021/07/05 10:28:03;;;;;;;9.43;4.50;;;;;;;;;;5034168;28;20068;-46
2021/07/05 10:30:29;;;;;;;4.70;3.63;;;;;;;;;;5030540;28;20026;-46
2021/07/05 10:32:54;;;;;;;4.07;2.92;;;;;;;;;;5030066;28;20503;-55
2021/07/05 10:35:22;;;;;;;8.52;4.30;;;;;;;;;;5029092;28;20017;-56
2021/07/05 10:37:56;;;;;;;4.57;4.15;;;;;;;;;;5032603;28;20021;-57
2021/07/05 10:40:26;;;;;;;9.15;3.33;;;;;;;;;;5034039;28;20018;-57
2021/07/05 10:42:55;;;;;;;8.00;3.87;;;;;;;;;;5032540;28;20025;-56
2021/07/05 10:45:23;;;;;;;3.42;2.60;;;;;;;;;;5037794;28;20704;-57
2021/07/05 10:47:54;;;;;;;4.18;3.78;;;;;;;;;;5035958;28;20111;-56
2021/07/05 10:50:40;;;;;;;5.03;2.97;;;;;;;;;;5033900;28;20505;-57
2021/07/05 10:53:06;;;;;;;6.13;4.18;;;;;;;;;;5033664;28;20056;-56
2021/07/05 10:55:35;;;;;;;11.85;5.32;;;;;;;;;;5033976;28;20467;-56
2021/07/05 10:58:00;;;;;;;10.00;4.13;;;;;;;;;;5036382;28;20052;-47
2021/07/05 11:00:38;;;;;;;3.03;2.30;;;;;;;;;;5033702;28;21059;-44
2021/07/05 11:03:03;;;;;;;2.70;2.10;;;;;;;;;;5037219;28;20032;-45
2021/07/05 11:05:31;;;;;;;16.17;6.20;;;;;;;;;;5030520;28;20029;-44
2021/07/05 11:08:15;;;;;;;7.03;2.85;;;;;;;;;;5034098;28;20080;-43
2021/07/05 11:10:40;;;;;;;5.20;3.53;;;;;;;;;;5033659;28;20033;-56
2021/07/05 11:13:06;;;;;;;6.90;3.92;;;;;;;;;;5034931;28;20025;-59
2021/07/05 11:15:52;;;;;;;4.35;3.78;;;;;;;;;;5033941;28;20436;-49
2021/07/05 11:18:39;;;;;;;6.47;5.20;;;;;;;;;;5035007;28;20545;-56
2021/07/05 11:21:07;;;;;;;9.48;4.93;;;;;;;;;;5035766;28;20053;-58
2021/07/05 11:24:04;;;;;;;2.30;2.10;;;;;;;;;;5030842;28;20017;-49
2021/07/05 11:26:33;;;;;;;4.68;4.07;;;;;;;;;;4997183;28;20042;-49
2021/07/05 11:29:13;;;;;;;5.25;3.55;;;;;;;;;;5032242;28;20056;-48
2021/07/05 11:31:56;;;;;;;4.55;3.90;;;;;;;;;;5032978;28;20017;-57
2021/07/05 11:34:29;;;;;;;4.15;3.75;;;;;;;;;;5034557;28;20029;-55
2021/07/05 11:37:12;;;;;;;6.97;3.78;;;;;;;;;;5029982;28;20037;-57
2021/07/05 11:39:42;;;;;;;4.00;3.60;;;;;;;;;;5029842;28;20026;-57
2021/07/05 11:42:08;;;;;;;2.75;2.33;;;;;;;;;;5038051;28;20021;-57
2021/07/05 11:44:50;;;;;;;9.98;3.70;;;;;;;;;;5036428;28;20039;-57
2021/07/05 11:47:34;;;;;;;7.63;3.70;;;;;;;;;;5030762;28;20035;-57
2021/07/05 11:50:14;;;;;;;8.30;4.25;;;;;;;;;;5033026;28;20030;-57
2021/07/05 11:52:52;;;;;;;2.85;2.60;;;;;;;;;;5030601;28;20454;-57
2021/07/05 11:55:18;;;;;;;3.13;2.55;;;;;;;;;;5033900;28;20030;-57
2021/07/05 11:57:53;;;;;;;4.47;3.58;;;;;;;;;;5035101;28;20029;-58
2021/07/05 12:00:22;;;;;;;8.88;4.90;;;;;;;;;;5032571;28;20022;-56
2021/07/05 12:02:59;;;;;;;15.60;4.65;;;;;;;;;;5030850;28;20075;-58
2021/07/05 12:05:24;;;;;;;4.43;2.08;;;;;;;;;;5031841;28;20067;-58
2021/07/05 12:07:59;;;;;;;4.82;2.90;;;;;;;;;;5035789;28;20485;-58
2021/07/05 12:10:26;;;;;;;4.72;2.05;;;;;;;;;;5033111;28;20499;-58
2021/07/05 12:12:52;;;;;;;5.05;3.58;;;;;;;;;;5033737;28;20502;-58
2021/07/05 12:15:20;;;;;;;3.00;2.00;;;;;;;;;;5035291;28;20017;-58
2021/07/05 12:17:46;;;;;;;5.50;4.95;;;;;;;;;;5035674;28;20028;-57
2021/07/05 12:20:11;;;;;;;5.63;3.33;;;;;;;;;;5034915;28;20017;-57
2021/07/05 12:22:37;;;;;;;4.25;2.53;;;;;;;;;;5031702;28;20560;-57
2021/07/05 12:25:03;;;;;;;7.43;4.78;;;;;;;;;;5028767;28;20078;-57
2021/07/05 12:27:29;;;;;;;11.27;4.05;;;;;;;;;;5026271;28;20022;-57
2021/07/05 12:29:59;;;;;;;3.40;2.88;;;;;;;;;;5029691;28;20022;-57
2021/07/05 12:32:27;;;;;;;9.52;3.72;;;;;;;;;;5028717;28;20095;-57
2021/07/05 12:34:59;;;;;;;9.27;5.03;;;;;;;;;;5030528;28;20022;-57
2021/07/05 12:37:25;;;;;;;10.40;3.08;;;;;;;;;;5028088;28;20014;-57
2021/07/05 12:39:50;;;;;;;4.95;3.80;;;;;;;;;;5034380;28;20401;-57
2021/07/05 12:42:26;;;;;;;5.70;3.20;;;;;;;;;;5029537;28;20129;-57
2021/07/05 12:44:52;;;;;;;16.75;5.43;;;;;;;;;;5035675;28;20283;-57
2021/07/05 12:47:17;;;;;;;9.68;4.28;;;;;;;;;;5035263;28;20068;-57
2021/07/05 12:49:44;;;;;;;8.10;3.67;;;;;;;;;;5034087;28;20025;-57
2021/07/05 12:52:10;;;;;;;10.70;5.40;;;;;;;;;;5034830;28;20017;-57
2021/07/05 12:54:38;;;;;;;7.10;5.63;;;;;;;;;;5034283;28;20388;-57
2021/07/05 12:57:11;;;;;;;5.38;3.58;;;;;;;;;;5035899;28;20022;-56
2021/07/05 12:59:39;;;;;;;5.72;3.72;;;;;;;;;;5036285;28;20025;-57
2021/07/05 13:02:05;;;;;;;4.90;3.22;;;;;;;;;;5028149;28;20695;-57
2021/07/05 13:04:30;;;;;;;6.15;3.85;;;;;;;;;;5032176;28;20402;-57
2021/07/05 13:07:03;;;;;;;11.35;3.35;;;;;;;;;;5034647;28;20539;-57
2021/07/05 13:09:32;;;;;;;7.70;3.92;;;;;;;;;;5034780;28;20125;-57
2021/07/05 13:12:02;;;;;;;4.72;2.45;;;;;;;;;;5035838;28;20035;-56
2021/07/05 13:14:31;;;;;;;4.47;3.28;;;;;;;;;;5032853;28;20017;-57
2021/07/05 13:17:05;;;;;;;4.65;2.65;;;;;;;;;;5032830;28;20037;-57
2021/07/05 13:19:30;;;;;;;7.10;3.67;;;;;;;;;;5033794;28;20090;-57
2021/07/05 13:21:55;;;;;;;12.32;3.63;;;;;;;;;;5030463;28;20477;-57
2021/07/05 13:24:24;;;;;;;3.67;2.10;;;;;;;;;;5034292;28;20476;-60
2021/07/05 13:26:50;;;;;;;6.30;3.65;;;;;;;;;;5033403;28;20032;-57
2021/07/05 13:29:17;;;;;;;5.40;3.22;;;;;;;;;;5031815;28;20040;-57
2021/07/05 13:31:42;;;;;;;2.30;1.98;;;;;;;;;;5035416;28;20498;-58
2021/07/05 13:34:26;;;;;;;4.88;1.58;;;;;;;;;;5030210;28;20041;-57
2021/07/05 13:36:52;;;;;;;5.40;2.22;;;;;;;;;;5036558;28;20030;-58
2021/07/05 13:39:18;;;;;;;1.63;0.95;;;;;;;;;;5030638;28;20028;-57
2021/07/05 13:41:43;;;;;;;13.75;2.83;;;;;;;;;;5031584;28;20115;-58
2021/07/05 13:44:08;;;;;;;2.03;1.35;;;;;;;;;;5034013;28;20021;-58
2021/07/05 13:46:33;;;;;;;3.58;1.17;;;;;;;;;;5039830;28;20021;-58
2021/07/05 13:49:10;;;;;;;2.63;1.17;;;;;;;;;;5035376;28;20148;-58
2021/07/05 13:51:36;;;;;;;2.17;0.93;;;;;;;;;;5036914;28;20021;-58
2021/07/05 13:54:01;;;;;;;4.72;1.73;;;;;;;;;;5031106;28;20555;-58
2021/07/05 13:56:31;;;;;;;2.92;1.90;;;;;;;;;;5029365;28;20029;-57
2021/07/05 13:58:56;;;;;;;2.25;1.48;;;;;;;;;;5036376;28;20057;-58
2021/07/05 14:01:25;;;;;;;3.22;2.25;;;;;;;;;;5036122;28;20716;-67
2021/07/05 14:03:50;;;;;;;1.48;1.15;;;;;;;;;;5036844;28;20128;-66
2021/07/05 14:06:17;;;;;;;2.28;1.27;;;;;;;;;;5031999;28;20133;-62
2021/07/05 14:08:45;;;;;;;1.52;1.10;;;;;;;;;;5034969;28;20673;-63
2021/07/05 14:11:10;;;;;;;4.43;1.00;;;;;;;;;;5037515;28;20031;-63
2021/07/05 14:13:38;;;;;;;4.05;1.23;;;;;;;;;;5035927;28;20720;-62
2021/07/05 14:16:04;;;;;;;5.40;1.60;;;;;;;;;;5036087;28;20151;-62
2021/07/05 14:18:29;;;;;;;5.50;1.25;;;;;;;;;;5036573;28;20021;-62
2021/07/05 14:20:55;;;;;;;1.17;0.85;;;;;;;;;;5036266;28;20029;-63
2021/07/05 14:23:21;;;;;;;14.18;2.92;;;;;;;;;;5034552;28;20029;-63
2021/07/05 14:25:48;;;;;;;1.77;1.30;;;;;;;;;;5030057;28;20115;-63
2021/07/05 14:28:13;;;;;;;1.55;1.08;;;;;;;;;;5032372;28;20120;-63
2021/07/05 14:30:39;;;;;;;4.80;2.63;;;;;;;;;;5036006;28;20092;-63
2021/07/05 14:33:05;;;;;;;2.00;1.80;;;;;;;;;;5033244;28;20066;-63
2021/07/05 14:35:30;;;;;;;1.67;0.93;;;;;;;;;;5035888;28;20022;-62
2021/07/05 14:37:56;;;;;;;1.38;0.90;;;;;;;;;;5035398;28;20079;-62
2021/07/05 14:40:21;;;;;;;1.33;0.90;;;;;;;;;;5036064;28;20024;-62